Albert Lea, MN

11:17 AM CST on February 14, 2016 (GMT -0600)
4th Ave S, Albert Lea | | Change Station
CLOSE
Current Station
Personal Weather Station
Location: Albert Lea, MN
Elevation: 1214 ft
Nearby Weather Stations

Elev 1214 ft 43.64 °N, 93.38 °W | Updated 6 minutes ago

Light Snow
Light Snow
17.2 °F
Feels Like 5 °F
N
9.9
Wind Variable Wind from SE

Today
High -- | Low -- °F
--% Chance of Precip.
Yesterday
High -- | Low -- °F
Precip. -- in
Pressure 29.96 in
Visibility 1.8 miles
Clouds Scattered Clouds 1700 ft
Overcast 2700 ft
Windchill 5 °F
Dew Point 17 °F
Humidity 99%
Rainfall 0.00 in
Snow Depth Not available.
7:14 AM 5:41 PM
Waxing Crescent, 43% visible
METAR KAEL 141712Z AUTO 15015G22KT 1 3/4SM -SN SCT017 OVC027 M09/M11 A2996 RMK AO2
Pressure 29.96 in
Visibility 1.8 miles
Clouds Scattered Clouds 1700 ft
Overcast 2700 ft
Windchill 5 °F
Dew Point 17 °F
Humidity 99%
Rainfall 0.00 in
Snow Depth Not available.
7:14 AM 5:41 PM
Waxing Crescent, 43% visible
METAR KAEL 141712Z AUTO 15015G22KT 1 3/4SM -SN SCT017 OVC027 M09/M11 A2996 RMK AO2

10-Day Weather Forecast

Almanac

Astronomy

Feb. 14, 2016 Rise Set
Actual Time
Civil Twilight
Nautical Twilight
Astronomical Twilight
Moon
Length of Visible Light
Length of Day
Tomorrow will be .
, % of the Moon is Illuminated

Today's Extremes

State Highs State Lows

Community

WunderPhotos

Upload Photos

1,892,853 photos uploaded!

WunderBlog® & News

Nearby

Air Quality

  Air Quality AQ Index Pollutant
Not available.

Snow Depth

Station Depth Elevation

Earthquake Activity

City Distance Mag. Time & Date
Minimum magnitude displayed is 2.5.

Coastal Water Temperatures

Place Temperature

Stations

Nearby Weather Stations

Station Location Temp. Windchill Dew Point Humidity Wind Precip. Elev Updated Type
                   

Watches & Warnings

There are currently no watches in effect.